MDT,Max TemperatureF,Mean TemperatureF,Min TemperatureF,Max Dew PointF,MeanDew PointF,Min DewpointF,Max Humidity, Mean Humidity, Min Humidity, Max Sea Level PressureIn, Mean Sea Level PressureIn, Min Sea Level PressureIn, Max VisibilityMiles, Mean VisibilityMiles, Min VisibilityMiles, Max Wind SpeedMPH, Mean Wind SpeedMPH, Max Gust SpeedMPH,PrecipitationIn, CloudCover, Events, WindDirDegrees
2011-10-1,81,64,46,38,35,31,63,39,16,30.20,30.09,29.99,10,10,10,12,3,,0.00,0,Thunderstorm,201
2011-10-2,73,59,45,43,39,34,68,44,23,30.16,30.09,30.03,10,10,10,16,4,22,0.00,0,,221
2011-10-3,79,62,46,50,42,36,77,52,23,30.17,30.04,29.92,10,10,10,20,5,22,0.00,2,Rain,124
2011-10-4,66,58,51,52,49,44,94,82,47,30.08,29.96,29.86,10,9,2,33,5,43,0.31,6,Rain-Thunderstorm,232
2011-10-5,66,53,42,48,44,37,100,81,36,29.94,29.81,29.61,10,8,0,23,3,30,0.00,6,Fog-Rain,263
2011-10-6,51,42,33,47,38,30,96,87,48,29.91,29.68,29.47,10,9,2,34,9,53,0.51,7,Rain,209
2011-10-7,53,40,28,34,29,21,100,84,30,30.06,29.98,29.90,10,5,0,15,2,23,0.00,3,Fog,247
2011-10-8,53,40,28,34,29,26,92,68,40,30.19,30.07,29.94,10,10,10,12,3,21,0.00,4,,291
2011-10-9,59,47,37,35,31,25,83,58,30,30.17,30.08,29.98,10,10,10,16,4,23,0.00,5,,301
2011-10-10,62,46,30,35,30,26,89,60,26,30.14,30.03,29.91,10,10,10,14,2,20,0.00,1,,271
2011-10-11,57,50,42,43,40,37,93,74,47,30.05,29.96,29.88,10,10,10,9,4,,0.03,7,Rain,60
2011-10-12,66,50,33,42,32,14,100,74,13,30.28,30.18,30.06,10,8,0,10,3,,0.00,1,Fog,95
2011-10-13,71,50,30,32,27,18,82,48,15,30.26,30.12,29.96,10,10,10,15,4,,0.00,0,,209
2011-10-14,75,54,34,32,30,27,82,50,17,30.16,30.06,29.94,10,10,10,18,3,23,0.00,0,,189
2011-10-15,79,56,36,35,31,30,82,48,18,30.19,30.06,29.94,10,10,10,16,2,21,0.00,0,,294
2011-10-16,78,58,41,34,30,23,73,42,15,30.07,29.96,29.85,10,10,10,22,3,28,0.00,1,,225
2011-10-17,64,50,37,40,32,28,73,48,30,30.30,30.11,29.79,10,10,10,31,8,43,0.00,3,Rain-Thunderstorm,303
2011-10-18,62,45,28,28,24,17,82,52,18,30.45,30.33,30.24,10,10,10,9,3,,0.00,0,,127
2011-10-19,66,46,27,24,20,14,75,44,13,30.28,30.11,29.94,10,10,10,15,3,20,0.00,0,,152
2011-10-20,69,48,28,27,23,21,72,43,19,30.20,30.11,30.02,10,10,10,9,2,,0.00,0,,229
2011-10-21,71,50,30,28,25,23,73,42,17,30.28,30.17,30.07,10,10,10,14,3,18,0.00,0,,239
2011-10-22,69,51,33,28,25,23,72,44,18,30.28,30.20,30.12,10,10,10,13,2,18,0.00,0,,217
2011-10-23,70,50,30,27,23,17,75,44,13,30.35,30.22,30.10,10,10,10,8,2,,0.00,0,,139
2011-10-24,72,51,30,25,23,21,72,41,16,30.21,30.06,29.90,10,10,10,15,4,20,0.00,0,,203
2011-10-25,62,51,41,45,35,27,93,64,32,30.03,29.95,29.83,10,9,4,24,5,32,0.30,6,Rain-Thunderstorm,244
2011-10-26,44,38,30,37,32,23,100,81,59,30.19,30.03,29.91,10,9,4,23,5,29,0.51,8,Rain,279
2011-10-27,46,36,25,29,24,21,92,68,39,30.30,30.24,30.17,10,10,10,7,2,,0.00,2,,217
2011-10-28,51,38,24,26,21,9,88,62,18,30.48,30.36,30.28,10,10,10,5,1,,0.00,0,,186
2011-10-29,50,37,24,27,24,20,85,65,35,30.38,30.29,30.19,10,10,10,7,2,,0.00,1,,124
2011-10-30,60,42,24,29,25,19,85,62,26,30.44,30.33,30.24,10,10,10,7,1,,0.00,0,,109
2011-10-31,63,43,25,29,26,22,88,63,26,30.31,30.18,30.03,10,10,10,15,2,,0.00,0,,180